Time;durP1;ratioP1;P1;durP2;ratioP2;P2;SDS_P1;SDS_P2;PMS_P1;PMS_P2;Temp;Humidity;BMP_temperature;BMP_pressure;BME280_temperature;BME280_humidity;BME280_pressure;Samples;Min_cycle;Max_cycle;Signal;HPM_P1;HPM_P2
2021/12/05 00:17:28;;;;;;;1.50;0.77;;;;;;;;;;4992771;28;20453;-77
2021/12/05 00:22:16;;;;;;;1.70;0.70;;;;;;;;;;5022694;28;20516;-74
2021/12/05 00:24:45;;;;;;;3.58;1.00;;;;;;;;;;5032993;28;20109;-76
2021/12/05 00:27:17;;;;;;;1.42;0.80;;;;;;;;;;5033586;28;20037;-76
2021/12/05 00:29:56;;;;;;;3.15;1.05;;;;;;;;;;5026879;28;20017;-76
2021/12/05 00:43:24;;;;;;;0.88;0.70;;;;;;;;;;5029621;28;20028;-74
2021/12/05 00:46:18;;;;;;;2.53;0.93;;;;;;;;;;5030218;28;20140;-76
2021/12/05 00:51:46;;;;;;;1.42;0.70;;;;;;;;;;5029450;28;20029;-76
2021/12/05 00:59:35;;;;;;;2.08;0.90;;;;;;;;;;5025132;28;20470;-76
2021/12/05 01:15:27;;;;;;;3.30;0.90;;;;;;;;;;4997850;28;20457;-77
2021/12/05 01:18:01;;;;;;;2.45;0.98;;;;;;;;;;5009268;28;20030;-77
2021/12/05 01:20:28;;;;;;;3.47;0.90;;;;;;;;;;5002321;28;20042;-76
2021/12/05 01:23:03;;;;;;;1.60;1.00;;;;;;;;;;5008813;28;20481;-77
2021/12/05 01:25:39;;;;;;;2.10;1.10;;;;;;;;;;5006921;28;20046;-76
2021/12/05 01:28:26;;;;;;;3.47;1.00;;;;;;;;;;5007008;28;20030;-76
2021/12/05 01:31:08;;;;;;;1.67;0.88;;;;;;;;;;4997587;28;20560;-76
2021/12/05 01:39:09;;;;;;;2.25;0.75;;;;;;;;;;4992227;28;20030;-77
2021/12/05 01:47:21;;;;;;;2.17;0.90;;;;;;;;;;5016694;28;20421;-75
2021/12/05 02:07:49;;;;;;;2.53;1.20;;;;;;;;;;5028111;28;20056;-76
2021/12/05 02:45:34;;;;;;;1.35;0.75;;;;;;;;;;5011724;28;20040;-74
2021/12/05 02:47:59;;;;;;;1.92;0.90;;;;;;;;;;5015638;28;20148;-74
2021/12/05 02:50:26;;;;;;;2.15;1.20;;;;;;;;;;5020840;28;20511;-74
2021/12/05 02:52:56;;;;;;;1.55;0.75;;;;;;;;;;5042000;28;20017;-74
2021/12/05 02:55:30;;;;;;;1.77;1.00;;;;;;;;;;5019927;28;20469;-74
2021/12/05 02:58:14;;;;;;;1.50;1.00;;;;;;;;;;5021518;28;20025;-74
2021/12/05 03:00:45;;;;;;;2.55;1.02;;;;;;;;;;5021387;28;20469;-75
2021/12/05 03:03:18;;;;;;;3.17;1.23;;;;;;;;;;5029540;28;20021;-74
2021/12/05 03:05:45;;;;;;;2.13;1.08;;;;;;;;;;5011711;28;20041;-76
2021/12/05 03:08:11;;;;;;;1.55;0.75;;;;;;;;;;5014533;28;20534;-77
2021/12/05 03:10:36;;;;;;;3.13;1.20;;;;;;;;;;5030474;28;20120;-78
2021/12/05 03:13:02;;;;;;;2.70;1.00;;;;;;;;;;5029843;28;20032;-76
2021/12/05 03:15:27;;;;;;;2.40;1.35;;;;;;;;;;5029623;28;20109;-77
2021/12/05 03:17:53;;;;;;;3.60;1.42;;;;;;;;;;5030654;28;20023;-76
2021/12/05 03:20:18;;;;;;;2.00;0.80;;;;;;;;;;5029709;28;20393;-76
2021/12/05 03:22:43;;;;;;;2.10;0.82;;;;;;;;;;5020736;28;20034;-76
2021/12/05 03:25:09;;;;;;;3.78;0.80;;;;;;;;;;5018613;28;20603;-76
2021/12/05 03:27:34;;;;;;;2.50;0.88;;;;;;;;;;5015106;28;20100;-76
2021/12/05 03:30:01;;;;;;;1.42;0.70;;;;;;;;;;5011589;28;20022;-76
2021/12/05 03:32:26;;;;;;;3.58;0.80;;;;;;;;;;5026860;28;20032;-75
2021/12/05 03:34:51;;;;;;;3.80;1.00;;;;;;;;;;5022358;28;20025;-77
2021/12/05 03:37:16;;;;;;;2.38;0.75;;;;;;;;;;5029497;28;20037;-76
2021/12/05 03:39:42;;;;;;;5.78;1.10;;;;;;;;;;5027508;28;20025;-77
2021/12/05 03:42:07;;;;;;;3.65;0.65;;;;;;;;;;5011406;28;20060;-74
2021/12/05 03:44:34;;;;;;;3.22;0.60;;;;;;;;;;5024058;28;20022;-74
2021/12/05 03:47:01;;;;;;;3.45;0.70;;;;;;;;;;5016952;28;20018;-74
2021/12/05 03:49:28;;;;;;;2.67;0.60;;;;;;;;;;5017441;28;20021;-74
2021/12/05 03:51:56;;;;;;;2.35;0.40;;;;;;;;;;5026562;28;20036;-76
2021/12/05 03:54:21;;;;;;;1.98;0.68;;;;;;;;;;5017346;28;20025;-75
2021/12/05 03:56:47;;;;;;;2.55;0.70;;;;;;;;;;5023685;28;20683;-75
2021/12/05 03:59:13;;;;;;;4.70;0.85;;;;;;;;;;5021240;28;20014;-75
2021/12/05 04:01:38;;;;;;;4.10;0.88;;;;;;;;;;5025816;28;20033;-75
2021/12/05 04:04:04;;;;;;;3.92;0.80;;;;;;;;;;5032742;28;20072;-75
2021/12/05 04:06:30;;;;;;;6.63;0.80;;;;;;;;;;5033382;28;20537;-76
2021/12/05 04:08:56;;;;;;;2.08;0.70;;;;;;;;;;5030200;28;20025;-76
2021/12/05 04:11:27;;;;;;;3.95;0.65;;;;;;;;;;5024786;28;20060;-75
2021/12/05 04:13:52;;;;;;;3.30;1.10;;;;;;;;;;5020132;28;20025;-75
2021/12/05 04:16:18;;;;;;;3.30;0.75;;;;;;;;;;5020761;28;20093;-75
2021/12/05 04:18:45;;;;;;;3.15;0.73;;;;;;;;;;5014450;28;20440;-75
2021/12/05 04:21:11;;;;;;;2.22;0.70;;;;;;;;;;5023288;28;20041;-76
2021/12/05 04:23:36;;;;;;;5.63;1.00;;;;;;;;;;5014471;28;20056;-76
2021/12/05 04:26:02;;;;;;;5.45;0.82;;;;;;;;;;5020648;28;20056;-78
2021/12/05 04:28:28;;;;;;;5.13;0.73;;;;;;;;;;5033522;28;20041;-75
2021/12/05 04:30:53;;;;;;;4.55;0.90;;;;;;;;;;5024717;28;20393;-76
2021/12/05 04:33:18;;;;;;;5.35;1.20;;;;;;;;;;5018633;28;20013;-76
2021/12/05 04:35:44;;;;;;;2.72;0.90;;;;;;;;;;5014356;28;20146;-76
2021/12/05 04:38:10;;;;;;;4.35;0.90;;;;;;;;;;5025537;28;20480;-77
2021/12/05 04:40:35;;;;;;;2.95;0.88;;;;;;;;;;5013803;28;20034;-76
2021/12/05 04:43:01;;;;;;;3.20;1.00;;;;;;;;;;5028789;28;20013;-77
2021/12/05 04:45:27;;;;;;;3.33;1.20;;;;;;;;;;5033015;28;20026;-77
2021/12/05 04:47:53;;;;;;;2.80;0.88;;;;;;;;;;5029347;28;20380;-76
2021/12/05 04:50:19;;;;;;;3.47;0.98;;;;;;;;;;5033038;28;20037;-76
2021/12/05 04:52:44;;;;;;;4.32;0.80;;;;;;;;;;5016117;28;20113;-77
2021/12/05 04:55:10;;;;;;;4.45;1.15;;;;;;;;;;5029204;28;20473;-76
2021/12/05 04:57:35;;;;;;;4.03;1.20;;;;;;;;;;5025643;28;20108;-75
2021/12/05 05:00:01;;;;;;;3.03;1.02;;;;;;;;;;5028839;28;20117;-75
2021/12/05 05:02:27;;;;;;;4.70;1.20;;;;;;;;;;5018902;28;20370;-75
2021/12/05 05:04:53;;;;;;;2.90;1.10;;;;;;;;;;5022232;28;20049;-75
2021/12/05 05:07:25;;;;;;;5.10;1.30;;;;;;;;;;5035828;28;20136;-77
2021/12/05 05:09:52;;;;;;;2.33;0.90;;;;;;;;;;5032221;28;20069;-76
2021/12/05 05:12:18;;;;;;;5.75;1.40;;;;;;;;;;5032420;28;20100;-76
2021/12/05 05:14:43;;;;;;;4.20;1.10;;;;;;;;;;5033162;28;20113;-76
2021/12/05 05:17:09;;;;;;;5.50;1.30;;;;;;;;;;5032564;28;20048;-75
2021/12/05 05:19:41;;;;;;;3.30;1.10;;;;;;;;;;5030626;28;20048;-77
2021/12/05 05:44:14;;;;;;;5.25;1.40;;;;;;;;;;5034769;28;20041;-77
2021/12/05 05:49:21;;;;;;;5.35;1.35;;;;;;;;;;5032710;28;20580;-77
2021/12/05 05:51:46;;;;;;;4.43;0.98;;;;;;;;;;5033019;28;20025;-77
2021/12/05 05:54:12;;;;;;;5.60;1.38;;;;;;;;;;5032075;28;20025;-78
2021/12/05 05:56:38;;;;;;;5.88;1.27;;;;;;;;;;5032152;28;20034;-76
2021/12/05 05:59:12;;;;;;;5.82;1.52;;;;;;;;;;5017114;28;20117;-77
2021/12/05 06:04:03;;;;;;;3.60;1.05;;;;;;;;;;5019697;28;20033;-77
2021/12/05 06:06:30;;;;;;;4.55;1.23;;;;;;;;;;5030851;28;20072;-76
2021/12/05 06:08:56;;;;;;;4.90;1.40;;;;;;;;;;5021339;28;20037;-76
2021/12/05 06:11:21;;;;;;;4.72;1.33;;;;;;;;;;5031799;28;20025;-76
2021/12/05 06:13:47;;;;;;;5.47;1.25;;;;;;;;;;5018181;28;20037;-77
2021/12/05 06:16:13;;;;;;;3.72;1.20;;;;;;;;;;5012256;28;20358;-77
2021/12/05 06:18:38;;;;;;;4.07;1.45;;;;;;;;;;5012052;28;20136;-77
2021/12/05 06:21:04;;;;;;;5.43;1.42;;;;;;;;;;5029076;28;20072;-76
2021/12/05 06:23:29;;;;;;;4.75;1.20;;;;;;;;;;5025277;28;20025;-76
2021/12/05 06:25:55;;;;;;;4.18;1.20;;;;;;;;;;5026916;28;20130;-76
2021/12/05 06:28:40;;;;;;;6.55;1.70;;;;;;;;;;5030295;28;20117;-77
2021/12/05 06:31:25;;;;;;;3.88;1.30;;;;;;;;;;5024478;28;20493;-76
2021/12/05 06:36:59;;;;;;;6.30;1.60;;;;;;;;;;5025557;28;20584;-77
2021/12/05 06:47:13;;;;;;;3.03;1.10;;;;;;;;;;5030889;28;20507;-78
2021/12/05 06:49:39;;;;;;;6.63;1.60;;;;;;;;;;5031306;28;20033;-77
2021/12/05 06:52:06;;;;;;;6.22;1.33;;;;;;;;;;5030261;28;20079;-78
2021/12/05 06:54:32;;;;;;;4.15;1.30;;;;;;;;;;5026549;28;20096;-77
2021/12/05 06:56:57;;;;;;;7.05;1.00;;;;;;;;;;5016019;28;20112;-75
2021/12/05 06:59:22;;;;;;;5.50;1.30;;;;;;;;;;5021707;28;20149;-77
2021/12/05 07:01:47;;;;;;;4.25;1.58;;;;;;;;;;5017179;28;20425;-77
2021/12/05 07:04:44;;;;;;;7.30;1.45;;;;;;;;;;5015116;28;20121;-76
2021/12/05 07:07:05;;;;;;;7.82;1.83;;;;;;;;;;5027766;28;20487;-75
2021/12/05 07:09:31;;;;;;;5.13;1.25;;;;;;;;;;5025426;28;20039;-75
2021/12/05 07:14:53;;;;;;;4.10;1.23;;;;;;;;;;5023653;28;20028;-75
2021/12/05 07:23:12;;;;;;;4.38;1.42;;;;;;;;;;5026890;28;20109;-77
2021/12/05 07:25:37;;;;;;;5.05;1.25;;;;;;;;;;5019813;28;20030;-77
2021/12/05 07:41:50;;;;;;;5.53;1.30;;;;;;;;;;5031733;28;20103;-76
2021/12/05 07:44:16;;;;;;;6.55;1.45;;;;;;;;;;5026210;28;20044;-77
2021/12/05 07:46:41;;;;;;;4.88;1.10;;;;;;;;;;5028024;28;20025;-76
2021/12/05 07:49:10;;;;;;;5.13;1.33;;;;;;;;;;5028267;28;20036;-75
2021/12/05 07:51:39;;;;;;;6.70;1.30;;;;;;;;;;5020321;28;20123;-77
2021/12/05 07:54:11;;;;;;;5.00;1.20;;;;;;;;;;5013638;28;20088;-77
2021/12/05 07:57:23;;;;;;;3.67;1.27;;;;;;;;;;5018130;28;20627;-74
2021/12/05 07:59:39;;;;;;;2.53;1.25;;;;;;;;;;5009970;28;20037;-76
2021/12/05 08:15:58;;;;;;;3.42;1.17;;;;;;;;;;5025603;28;20113;-71
2021/12/05 08:18:23;;;;;;;3.60;1.20;;;;;;;;;;5022346;28;20037;-77
2021/12/05 08:20:48;;;;;;;5.30;1.05;;;;;;;;;;5021640;28;20434;-76
2021/12/05 08:23:14;;;;;;;2.45;1.15;;;;;;;;;;5025790;28;20021;-76
2021/12/05 08:25:41;;;;;;;3.53;1.20;;;;;;;;;;5030693;28;20082;-76
2021/12/05 08:30:42;;;;;;;3.45;1.08;;;;;;;;;;5033916;28;20022;-76
2021/12/05 08:33:26;;;;;;;5.18;1.20;;;;;;;;;;5020966;28;20533;-76
2021/12/05 08:41:29;;;;;;;4.78;1.30;;;;;;;;;;5023640;28;20084;-66
2021/12/05 09:08:35;;;;;;;2.45;0.90;;;;;;;;;;5027983;28;20037;-65
2021/12/05 09:08:46;;;;;;;4.38;0.95;;;;;;;;;;5027334;28;20091;-67
2021/12/05 09:51:09;;;;;;;3.15;0.82;;;;;;;;;;5019333;28;20036;-66
2021/12/05 10:02:49;;;;;;;3.17;1.20;;;;;;;;;;5031068;28;20088;-66
2021/12/05 10:10:44;;;;;;;2.80;0.98;;;;;;;;;;5044098;28;20092;-66
2021/12/05 10:13:20;;;;;;;3.65;1.35;;;;;;;;;;5034557;28;20424;-66
2021/12/05 10:16:08;;;;;;;5.55;1.25;;;;;;;;;;5040535;28;20029;-66
2021/12/05 10:26:52;;;;;;;5.13;1.10;;;;;;;;;;5033222;28;20041;-66
2021/12/05 10:38:07;;;;;;;3.70;0.98;;;;;;;;;;5019953;28;20104;-67
2021/12/05 10:40:41;;;;;;;2.30;1.08;;;;;;;;;;5018941;28;20112;-66
2021/12/05 10:43:12;;;;;;;5.55;1.27;;;;;;;;;;5027458;28;20029;-67
2021/12/05 10:45:42;;;;;;;3.60;1.45;;;;;;;;;;5028217;28;20037;-67
2021/12/05 10:48:19;;;;;;;3.15;1.10;;;;;;;;;;5027089;28;20028;-67
2021/12/05 10:50:49;;;;;;;4.32;1.00;;;;;;;;;;5026523;28;20104;-66
2021/12/05 10:53:23;;;;;;;2.63;0.77;;;;;;;;;;5023964;28;20499;-66
2021/12/05 10:56:06;;;;;;;2.80;1.00;;;;;;;;;;5022674;28;20596;-66
2021/12/05 10:58:43;;;;;;;5.05;1.08;;;;;;;;;;5013105;28;20394;-67
2021/12/05 11:01:19;;;;;;;4.70;1.13;;;;;;;;;;5025464;28;20095;-66
2021/12/05 11:03:46;;;;;;;3.80;1.20;;;;;;;;;;5024571;28;20053;-66
2021/12/05 11:06:17;;;;;;;4.50;1.58;;;;;;;;;;5025683;28;20025;-67
2021/12/05 11:08:42;;;;;;;3.97;1.08;;;;;;;;;;5023470;28;20053;-67
2021/12/05 11:11:09;;;;;;;3.85;1.00;;;;;;;;;;5028343;28;20060;-66
2021/12/05 11:13:36;;;;;;;5.43;1.08;;;;;;;;;;5021179;28;20029;-66
2021/12/05 11:16:01;;;;;;;3.90;0.95;;;;;;;;;;5025454;28;20035;-67
2021/12/05 11:18:39;;;;;;;4.50;1.20;;;;;;;;;;5023131;28;20367;-66
2021/12/05 11:21:22;;;;;;;3.20;1.00;;;;;;;;;;5015421;28;20042;-67
2021/12/05 11:24:03;;;;;;;3.90;1.10;;;;;;;;;;5024615;28;20033;-68
2021/12/05 11:26:30;;;;;;;2.63;1.00;;;;;;;;;;5034444;28;20068;-66
2021/12/05 11:28:55;;;;;;;2.88;1.13;;;;;;;;;;5027276;28;20033;-67
2021/12/05 11:31:25;;;;;;;4.20;1.27;;;;;;;;;;5023143;28;20036;-68
2021/12/05 11:33:53;;;;;;;4.57;1.20;;;;;;;;;;5024479;28;20037;-65
2021/12/05 11:36:22;;;;;;;4.55;0.90;;;;;;;;;;5023415;28;20478;-66
2021/12/05 11:38:47;;;;;;;4.40;1.02;;;;;;;;;;5025355;28;20083;-66
2021/12/05 11:41:14;;;;;;;5.72;1.20;;;;;;;;;;5022488;28;20430;-67
2021/12/05 11:43:39;;;;;;;4.70;1.25;;;;;;;;;;5021049;28;20429;-66
2021/12/05 11:46:07;;;;;;;2.47;1.10;;;;;;;;;;5022663;28;20152;-67
2021/12/05 11:48:42;;;;;;;3.78;1.05;;;;;;;;;;5024551;28;20024;-65
2021/12/05 11:51:27;;;;;;;4.18;1.00;;;;;;;;;;5021238;28;20025;-68
2021/12/05 11:53:55;;;;;;;3.17;0.93;;;;;;;;;;5020460;28;20535;-67
2021/12/05 11:56:29;;;;;;;4.15;0.82;;;;;;;;;;5015653;28;20038;-67
2021/12/05 11:59:09;;;;;;;3.65;1.20;;;;;;;;;;5023268;28;20552;-67
2021/12/05 12:01:36;;;;;;;5.45;1.67;;;;;;;;;;5017995;28;20034;-66
2021/12/05 12:04:02;;;;;;;3.55;1.02;;;;;;;;;;5024284;28;20381;-67
2021/12/05 12:06:27;;;;;;;2.53;1.15;;;;;;;;;;5022188;28;20040;-66
2021/12/05 12:08:54;;;;;;;4.93;1.10;;;;;;;;;;5024150;28;20038;-67
2021/12/05 12:11:19;;;;;;;4.47;1.20;;;;;;;;;;5036796;28;20027;-66
2021/12/05 12:13:47;;;;;;;3.08;1.00;;;;;;;;;;5039177;28;20125;-65
2021/12/05 12:16:13;;;;;;;5.70;1.13;;;;;;;;;;5034122;28;20109;-66
2021/12/05 12:18:39;;;;;;;4.45;1.00;;;;;;;;;;5035876;28;20120;-66
2021/12/05 12:21:19;;;;;;;3.55;1.17;;;;;;;;;;5029485;28;20041;-67
2021/12/05 12:23:44;;;;;;;;;;;;;;;;;;5039629;28;20032;-67
2021/12/05 12:26:10;;;;;;;4.82;1.30;;;;;;;;;;5039146;28;19915;-66
2021/12/05 12:28:36;;;;;;;4.03;1.30;;;;;;;;;;5036577;28;20400;-67
2021/12/05 12:31:07;;;;;;;3.33;1.10;;;;;;;;;;5037068;28;20033;-67
2021/12/05 12:33:34;;;;;;;5.88;1.17;;;;;;;;;;5037308;28;20109;-66
2021/12/05 12:36:00;;;;;;;4.90;0.98;;;;;;;;;;5038743;28;20041;-66
2021/12/05 12:38:32;;;;;;;2.75;1.10;;;;;;;;;;5034827;28;20077;-67
2021/12/05 12:40:58;;;;;;;4.05;1.30;;;;;;;;;;5030379;28;20037;-66
2021/12/05 12:43:27;;;;;;;3.38;1.10;;;;;;;;;;5038498;28;20025;-66
2021/12/05 12:45:52;;;;;;;3.97;1.17;;;;;;;;;;5037617;28;20079;-66
2021/12/05 12:48:18;;;;;;;2.40;1.10;;;;;;;;;;5030812;28;20483;-65
2021/12/05 12:50:50;;;;;;;4.38;1.02;;;;;;;;;;5030144;28;20028;-66
2021/12/05 12:53:18;;;;;;;4.05;1.13;;;;;;;;;;5035278;28;20497;-66
2021/12/05 12:55:52;;;;;;;5.10;1.50;;;;;;;;;;5033273;28;20029;-67
2021/12/05 12:58:39;;;;;;;5.97;1.40;;;;;;;;;;5034422;28;20021;-67
2021/12/05 13:01:30;;;;;;;4.45;1.13;;;;;;;;;;5038598;28;20396;-67
2021/12/05 13:12:45;;;;;;;3.83;1.52;;;;;;;;;;4985137;28;20598;-67
2021/12/05 13:15:29;;;;;;;5.20;1.33;;;;;;;;;;4984779;28;20413;-68
2021/12/05 13:17:56;;;;;;;7.40;1.58;;;;;;;;;;4987016;28;20037;-63
2021/12/05 13:20:24;;;;;;;5.68;1.33;;;;;;;;;;4987538;28;20050;-63
2021/12/05 13:23:03;;;;;;;3.85;1.27;;;;;;;;;;4987057;28;20113;-63
2021/12/05 13:25:28;;;;;;;;;;;;;;;;;;4985522;28;20153;-68
2021/12/05 13:27:54;;;;;;;4.32;1.10;;;;;;;;;;4986360;28;20012;-67
2021/12/05 13:30:30;;;;;;;7.22;1.30;;;;;;;;;;4988920;28;20332;-68
2021/12/05 13:33:14;;;;;;;4.25;1.45;;;;;;;;;;4986914;28;20030;-67
2021/12/05 13:35:40;;;;;;;4.35;1.17;;;;;;;;;;4986550;28;20100;-67
2021/12/05 13:38:06;;;;;;;4.35;1.20;;;;;;;;;;4983575;28;20037;-68
2021/12/05 13:40:32;;;;;;;3.35;1.30;;;;;;;;;;4983026;28;20057;-67
2021/12/05 13:43:06;;;;;;;3.95;1.02;;;;;;;;;;4985083;28;20568;-69
2021/12/05 13:45:34;;;;;;;8.85;2.67;;;;;;;;;;4986827;28;20038;-67
2021/12/05 13:48:00;;;;;;;4.90;1.35;;;;;;;;;;5016462;28;20068;-68
2021/12/05 13:50:29;;;;;;;4.22;1.20;;;;;;;;;;5023925;28;20072;-67
2021/12/05 13:53:03;;;;;;;3.60;1.17;;;;;;;;;;5023634;28;20025;-66
2021/12/05 13:55:31;;;;;;;4.07;1.40;;;;;;;;;;5019716;28;20025;-67
2021/12/05 13:58:15;;;;;;;3.05;1.38;;;;;;;;;;5021986;28;20432;-66
2021/12/05 14:00:41;;;;;;;4.00;1.30;;;;;;;;;;5023240;28;20204;-67
2021/12/05 14:03:07;;;;;;;5.38;1.80;;;;;;;;;;5023270;28;20100;-67
2021/12/05 14:05:32;;;;;;;5.70;1.27;;;;;;;;;;5025239;28;20117;-67
2021/12/05 14:07:58;;;;;;;3.63;1.30;;;;;;;;;;5022763;28;20045;-66
2021/12/05 14:10:24;;;;;;;5.72;1.35;;;;;;;;;;5024640;28;20400;-66
2021/12/05 14:12:49;;;;;;;2.83;1.40;;;;;;;;;;5027677;28;20032;-67
2021/12/05 14:15:15;;;;;;;4.28;1.33;;;;;;;;;;5025301;28;20402;-66
2021/12/05 14:17:42;;;;;;;2.72;1.42;;;;;;;;;;5017868;28;20116;-67
2021/12/05 14:20:11;;;;;;;3.78;1.20;;;;;;;;;;5027115;28;20013;-66
2021/12/05 14:22:37;;;;;;;4.75;1.38;;;;;;;;;;5015638;28;20155;-66
2021/12/05 14:25:04;;;;;;;4.15;1.42;;;;;;;;;;5022810;28;20022;-66
2021/12/05 14:27:31;;;;;;;4.57;1.27;;;;;;;;;;5020544;28;20443;-67
2021/12/05 14:29:57;;;;;;;3.92;1.58;;;;;;;;;;5028087;28;20025;-66
2021/12/05 14:32:24;;;;;;;4.32;1.55;;;;;;;;;;5028203;28;20036;-67
2021/12/05 14:34:53;;;;;;;5.60;1.50;;;;;;;;;;5026005;28;20057;-66
2021/12/05 14:37:19;;;;;;;4.05;1.40;;;;;;;;;;5025080;28;20049;-66
2021/12/05 14:39:45;;;;;;;4.07;1.67;;;;;;;;;;5020697;28;20108;-67
2021/12/05 14:42:12;;;;;;;6.47;1.98;;;;;;;;;;5020317;28;20132;-67
2021/12/05 14:44:38;;;;;;;3.33;1.38;;;;;;;;;;5023731;28;20748;-67
2021/12/05 14:47:05;;;;;;;4.88;1.40;;;;;;;;;;5016978;28;20033;-66
2021/12/05 14:49:31;;;;;;;4.03;1.58;;;;;;;;;;5017712;28;20025;-66
2021/12/05 14:51:57;;;;;;;4.35;1.70;;;;;;;;;;5027822;28;20030;-67
2021/12/05 14:54:25;;;;;;;4.47;1.27;;;;;;;;;;5024962;28;20041;-67
2021/12/05 14:56:51;;;;;;;4.93;1.38;;;;;;;;;;5015092;28;20033;-67
2021/12/05 14:59:16;;;;;;;4.72;1.45;;;;;;;;;;5026253;28;20041;-66
2021/12/05 15:01:43;;;;;;;4.57;1.40;;;;;;;;;;5026954;28;20560;-66
2021/12/05 15:04:10;;;;;;;5.53;2.00;;;;;;;;;;5020436;28;20053;-66
2021/12/05 15:06:39;;;;;;;4.47;2.20;;;;;;;;;;5016270;28;20036;-67
2021/12/05 15:09:06;;;;;;;6.28;2.20;;;;;;;;;;5026489;28;20032;-66
2021/12/05 15:11:31;;;;;;;6.35;2.25;;;;;;;;;;5023181;28;20022;-66
2021/12/05 15:14:04;;;;;;;6.05;2.35;;;;;;;;;;5023909;28;20063;-66
2021/12/05 15:16:29;;;;;;;6.63;2.78;;;;;;;;;;5021237;28;20029;-66
2021/12/05 15:18:54;;;;;;;4.32;2.10;;;;;;;;;;5026692;28;20017;-67
2021/12/05 15:21:19;;;;;;;5.05;2.33;;;;;;;;;;5018571;28;20029;-66
2021/12/05 15:23:44;;;;;;;8.02;2.35;;;;;;;;;;5025983;28;20025;-66
2021/12/05 15:26:11;;;;;;;6.82;2.15;;;;;;;;;;5024253;28;20477;-66
2021/12/05 15:28:37;;;;;;;6.70;2.45;;;;;;;;;;5027738;28;20599;-66
2021/12/05 15:31:03;;;;;;;6.68;2.45;;;;;;;;;;5027039;28;20116;-66
2021/12/05 15:33:28;;;;;;;5.15;2.58;;;;;;;;;;5027518;28;20022;-67
2021/12/05 15:35:56;;;;;;;6.05;2.50;;;;;;;;;;5026393;28;20447;-67
2021/12/05 15:38:24;;;;;;;6.32;2.78;;;;;;;;;;5024497;28;20025;-66
2021/12/05 15:40:51;;;;;;;5.63;2.78;;;;;;;;;;5016241;28;20041;-66
2021/12/05 15:43:18;;;;;;;5.63;2.53;;;;;;;;;;5024110;28;20125;-66
2021/12/05 15:45:44;;;;;;;6.20;2.08;;;;;;;;;;5021137;28;20445;-67
2021/12/05 15:48:09;;;;;;;6.40;1.70;;;;;;;;;;5031550;28;20326;-66
2021/12/05 15:50:37;;;;;;;4.22;1.25;;;;;;;;;;5031272;28;20029;-66
2021/12/05 15:53:05;;;;;;;7.40;1.60;;;;;;;;;;5028696;28;20452;-68
2021/12/05 15:55:32;;;;;;;2.70;0.95;;;;;;;;;;5031420;28;20022;-67
2021/12/05 15:58:00;;;;;;;2.70;1.20;;;;;;;;;;5030579;28;20032;-66
2021/12/05 16:00:27;;;;;;;4.82;1.10;;;;;;;;;;5030423;28;20045;-67
2021/12/05 16:03:00;;;;;;;2.55;1.10;;;;;;;;;;5031416;28;20018;-67
2021/12/05 16:05:26;;;;;;;4.10;1.30;;;;;;;;;;5025825;28;20477;-66
2021/12/05 16:07:51;;;;;;;2.25;1.00;;;;;;;;;;5029522;28;20056;-66
2021/12/05 16:10:21;;;;;;;1.85;0.85;;;;;;;;;;5024324;28;20079;-66
2021/12/05 16:12:47;;;;;;;2.63;1.10;;;;;;;;;;5029033;28;20108;-66
2021/12/05 16:15:15;;;;;;;1.90;0.90;;;;;;;;;;5027303;28;20148;-66
2021/12/05 16:17:41;;;;;;;3.20;1.25;;;;;;;;;;5023519;28;20438;-66
2021/12/05 16:20:19;;;;;;;2.47;1.40;;;;;;;;;;5026748;28;20503;-67
2021/12/05 16:23:03;;;;;;;2.75;1.15;;;;;;;;;;5027599;28;20040;-65
2021/12/05 16:25:29;;;;;;;3.05;1.05;;;;;;;;;;5023663;28;20034;-68
2021/12/05 16:28:01;;;;;;;3.35;1.27;;;;;;;;;;5028917;28;20030;-67
2021/12/05 16:30:30;;;;;;;6.85;2.03;;;;;;;;;;5029485;28;20036;-66
2021/12/05 16:32:55;;;;;;;4.07;2.03;;;;;;;;;;5025923;28;20032;-67
2021/12/05 16:35:25;;;;;;;4.53;1.90;;;;;;;;;;5030840;28;20022;-67
2021/12/05 16:37:50;;;;;;;4.53;2.05;;;;;;;;;;5028706;28;20107;-67
2021/12/05 16:40:15;;;;;;;6.90;2.70;;;;;;;;;;5027437;28;20034;-72
2021/12/05 16:42:40;;;;;;;7.13;3.40;;;;;;;;;;5027385;28;20104;-71
2021/12/05 16:45:06;;;;;;;6.13;3.13;;;;;;;;;;5027640;28;20033;-72
2021/12/05 16:47:32;;;;;;;7.88;3.90;;;;;;;;;;5023103;28;20377;-71
2021/12/05 16:49:58;;;;;;;8.43;4.20;;;;;;;;;;5019794;28;20037;-71
2021/12/05 16:52:23;;;;;;;8.90;5.15;;;;;;;;;;5031324;28;20368;-71
2021/12/05 16:54:51;;;;;;;7.95;4.25;;;;;;;;;;5027146;28;20037;-70
2021/12/05 16:57:28;;;;;;;6.18;3.03;;;;;;;;;;5025971;28;20021;-72
2021/12/05 16:59:54;;;;;;;7.10;2.78;;;;;;;;;;5019070;28;20022;-72
2021/12/05 17:02:25;;;;;;;7.50;2.53;;;;;;;;;;5018779;28;20034;-74
2021/12/05 17:05:00;;;;;;;5.65;2.40;;;;;;;;;;5026026;28;20021;-71
2021/12/05 17:07:44;;;;;;;6.43;2.88;;;;;;;;;;5023469;28;20055;-72
2021/12/05 17:10:10;;;;;;;6.65;3.00;;;;;;;;;;5022553;28;20044;-72
2021/12/05 17:12:35;;;;;;;5.85;2.90;;;;;;;;;;5024982;28;20037;-72
2021/12/05 17:15:10;;;;;;;5.57;2.83;;;;;;;;;;5029456;28;20025;-72
2021/12/05 17:17:35;;;;;;;9.65;3.30;;;;;;;;;;5029987;28;20029;-73
2021/12/05 17:20:19;;;;;;;7.85;3.38;;;;;;;;;;5029949;28;20017;-71
2021/12/05 17:23:10;;;;;;;5.60;2.90;;;;;;;;;;5020937;28;20037;-72
2021/12/05 17:25:35;;;;;;;6.32;3.05;;;;;;;;;;5022428;28;20404;-72
2021/12/05 17:28:09;;;;;;;4.40;2.67;;;;;;;;;;5027667;28;20036;-71
2021/12/05 17:30:35;;;;;;;8.50;3.30;;;;;;;;;;5023889;28;20029;-71
2021/12/05 17:33:00;;;;;;;5.75;3.40;;;;;;;;;;5029300;28;20060;-71
2021/12/05 17:35:27;;;;;;;5.38;3.17;;;;;;;;;;5027395;28;20029;-71
2021/12/05 17:37:52;;;;;;;6.90;2.92;;;;;;;;;;5028154;28;20068;-71
2021/12/05 17:40:18;;;;;;;6.68;3.20;;;;;;;;;;5029298;28;20033;-71
2021/12/05 17:42:43;;;;;;;7.00;3.58;;;;;;;;;;5029303;28;20021;-72
2021/12/05 17:45:10;;;;;;;14.15;7.47;;;;;;;;;;5025494;28;20033;-71
2021/12/05 17:47:36;;;;;;;7.30;4.10;;;;;;;;;;5029032;28;20126;-71
2021/12/05 17:50:04;;;;;;;6.10;3.20;;;;;;;;;;5023111;28;20112;-72
2021/12/05 17:52:31;;;;;;;5.57;2.90;;;;;;;;;;5034725;28;20025;-71
2021/12/05 17:55:04;;;;;;;5.72;3.42;;;;;;;;;;5020859;28;20030;-71
2021/12/05 17:57:40;;;;;;;8.90;4.38;;;;;;;;;;5020825;28;20026;-71
2021/12/05 18:00:20;;;;;;;7.30;4.00;;;;;;;;;;5027634;28;20029;-72
2021/12/05 18:02:55;;;;;;;7.22;3.70;;;;;;;;;;5026041;28;20428;-72
2021/12/05 18:05:25;;;;;;;7.95;3.60;;;;;;;;;;5027012;28;20330;-72
2021/12/05 18:07:52;;;;;;;5.70;3.42;;;;;;;;;;5026293;28;20412;-72
2021/12/05 18:10:18;;;;;;;8.07;3.78;;;;;;;;;;5027200;28;20029;-71
2021/12/05 18:12:44;;;;;;;6.82;3.70;;;;;;;;;;5022953;28;20037;-69
2021/12/05 18:15:15;;;;;;;6.00;3.63;;;;;;;;;;5028028;28;20117;-72
2021/12/05 18:17:41;;;;;;;7.18;3.95;;;;;;;;;;5025609;28;20144;-77
2021/12/05 18:20:07;;;;;;;6.38;4.30;;;;;;;;;;5025829;28;20033;-70
2021/12/05 18:22:32;;;;;;;8.35;3.90;;;;;;;;;;5027465;28;20351;-69
2021/12/05 18:24:58;;;;;;;8.38;4.45;;;;;;;;;;5035650;28;20461;-70
2021/12/05 18:27:23;;;;;;;7.18;3.85;;;;;;;;;;5036788;28;20117;-72
2021/12/05 18:29:48;;;;;;;8.10;4.38;;;;;;;;;;5023382;28;20021;-71
2021/12/05 18:32:14;;;;;;;6.18;3.90;;;;;;;;;;5027662;28;20021;-71
2021/12/05 18:34:39;;;;;;;8.27;4.22;;;;;;;;;;5026262;28;20033;-72
2021/12/05 18:37:05;;;;;;;6.30;3.90;;;;;;;;;;5027901;28;20535;-71
2021/12/05 18:39:32;;;;;;;8.77;4.38;;;;;;;;;;5023391;28;20036;-71
2021/12/05 18:42:02;;;;;;;7.75;4.47;;;;;;;;;;5028052;28;20033;-72
2021/12/05 18:44:30;;;;;;;8.68;4.57;;;;;;;;;;5024578;28;20033;-70
2021/12/05 18:46:56;;;;;;;6.63;4.18;;;;;;;;;;5024153;28;20100;-72
2021/12/05 18:49:26;;;;;;;6.75;4.07;;;;;;;;;;5030141;28;20022;-71
2021/12/05 18:51:51;;;;;;;6.93;4.65;;;;;;;;;;5016866;28;20033;-71
2021/12/05 18:54:17;;;;;;;7.22;4.57;;;;;;;;;;5025620;28;20224;-71
2021/12/05 18:56:42;;;;;;;8.93;4.60;;;;;;;;;;5022831;28;20079;-71
2021/12/05 18:59:07;;;;;;;7.63;4.80;;;;;;;;;;5020287;28;20060;-70
2021/12/05 19:04:24;;;;;;;7.55;4.65;;;;;;;;;;5023875;28;20765;-72
2021/12/05 19:06:55;;;;;;;9.52;5.47;;;;;;;;;;5027329;28;20057;-72
2021/12/05 19:12:06;;;;;;;11.70;5.72;;;;;;;;;;5023358;28;20047;-71
2021/12/05 19:14:42;;;;;;;11.50;6.15;;;;;;;;;;5027724;28;20401;-71
2021/12/05 19:17:15;;;;;;;10.65;5.82;;;;;;;;;;5019684;28;20516;-71
2021/12/05 19:19:41;;;;;;;9.90;6.00;;;;;;;;;;5023349;28;20021;-71
2021/12/05 19:22:09;;;;;;;12.73;6.40;;;;;;;;;;5035227;28;20049;-72
2021/12/05 19:24:35;;;;;;;12.43;6.07;;;;;;;;;;5028475;28;20025;-72
2021/12/05 19:27:00;;;;;;;12.13;5.82;;;;;;;;;;5030251;28;20496;-73
2021/12/05 19:29:27;;;;;;;10.65;5.82;;;;;;;;;;5031039;28;20053;-70
2021/12/05 19:31:53;;;;;;;9.15;5.80;;;;;;;;;;5035724;28;20041;-71
2021/12/05 19:34:18;;;;;;;10.38;6.18;;;;;;;;;;5039441;28;20029;-72
2021/12/05 19:36:44;;;;;;;11.20;6.35;;;;;;;;;;5029972;28;20036;-71
2021/12/05 19:39:10;;;;;;;10.07;6.53;;;;;;;;;;5030802;28;20033;-72
2021/12/05 19:41:35;;;;;;;10.85;6.68;;;;;;;;;;5030742;28;20037;-71
2021/12/05 19:44:01;;;;;;;13.70;6.93;;;;;;;;;;5031056;28;20033;-72
2021/12/05 19:46:26;;;;;;;12.65;6.72;;;;;;;;;;5029517;28;20029;-71
2021/12/05 19:48:52;;;;;;;11.20;6.63;;;;;;;;;;5032713;28;20053;-71
2021/12/05 19:51:19;;;;;;;11.82;7.03;;;;;;;;;;5029076;28;20030;-74
2021/12/05 19:53:45;;;;;;;13.65;7.75;;;;;;;;;;5024715;28;20037;-74
2021/12/05 19:56:11;;;;;;;12.68;7.40;;;;;;;;;;5023528;28;20026;-76
2021/12/05 19:58:37;;;;;;;14.23;7.38;;;;;;;;;;5031142;28;20038;-75